Time;durP1;ratioP1;P1;durP2;ratioP2;P2;SDS_P1;SDS_P2;PMS_P1;PMS_P2;Temp;Humidity;BMP_temperature;BMP_pressure;BME280_temperature;BME280_humidity;BME280_pressure;Samples;Min_cycle;Max_cycle;Signal;HPM_P1;HPM_P2
2021/05/08 08:41:35;;;;;;;4.32;3.70;;;;;;;15.56;43.15;101426.44;5002035;28;96703;-80
2021/05/08 08:44:02;;;;;;;5.85;3.97;;;;;;;15.86;43.04;101430.88;4976366;28;97445;-82
2021/05/08 08:46:41;;;;;;;6.18;4.07;;;;;;;16.22;42.66;101415.06;4996095;28;100816;-80
2021/05/08 08:49:07;;;;;;;6.45;3.97;;;;;;;16.56;42.25;101411.47;4982975;28;100366;-78
2021/05/08 08:51:35;;;;;;;8.65;3.97;;;;;;;16.87;41.79;101406.09;5024988;27;98195;-78
2021/05/08 08:54:00;;;;;;;9.07;4.00;;;;;;;17.13;41.36;101398.06;4980536;28;97022;-79
2021/05/08 08:56:41;;;;;;;9.27;4.82;;;;;;;17.38;40.46;101397.94;4978409;28;97936;-79
2021/05/08 08:59:14;;;;;;;10.77;5.20;;;;;;;17.56;40.17;101396.03;4983802;28;99771;-81
2021/05/08 09:01:41;;;;;;;5.73;3.90;;;;;;;17.70;39.96;101389.78;4994537;28;96783;-81
2021/05/08 09:04:11;;;;;;;8.30;3.10;;;;;;;17.86;39.98;101381.72;4980891;28;96741;-81
2021/05/08 09:06:41;;;;;;;7.13;3.13;;;;;;;18.00;39.73;101387.78;4993039;28;97795;-81
2021/05/08 09:09:45;;;;;;;5.10;3.30;;;;;;;18.15;39.50;101389.38;4982266;28;97832;-82
2021/05/08 09:12:11;;;;;;;4.60;3.42;;;;;;;18.28;39.38;101379.56;4985542;28;97108;-81
2021/05/08 09:14:49;;;;;;;6.57;3.53;;;;;;;18.39;39.05;101376.81;5030404;27;96806;-81
2021/05/08 09:17:15;;;;;;;5.43;4.15;;;;;;;18.48;38.87;101373.19;5001056;28;97885;-83
2021/05/08 09:20:13;;;;;;;6.88;3.60;;;;;;;18.56;38.74;101366.91;4983637;28;99535;-82
2021/05/08 09:22:40;;;;;;;4.75;3.47;;;;;;;18.62;38.55;101372.13;5002287;28;98073;-82
2021/05/08 09:25:16;;;;;;;5.75;3.63;;;;;;;18.69;38.18;101358.84;5003639;28;97305;-82
2021/05/08 09:27:42;;;;;;;6.15;3.80;;;;;;;18.74;38.46;101363.16;4999223;28;97434;-82
2021/05/08 09:30:16;;;;;;;5.07;3.42;;;;;;;18.80;38.18;101357.78;5007365;28;100368;-82
2021/05/08 09:32:53;;;;;;;4.55;3.75;;;;;;;18.83;38.11;101360.44;4977098;28;96769;-81
2021/05/08 09:35:20;;;;;;;5.18;4.05;;;;;;;18.88;37.92;101359.50;4997023;28;96822;-75
2021/05/08 09:37:46;;;;;;;5.05;3.30;;;;;;;18.91;37.87;101347.13;5013736;28;100670;-75
2021/05/08 09:40:17;;;;;;;7.70;3.80;;;;;;;18.95;37.79;101342.69;4976683;28;97692;-75
2021/05/08 09:42:49;;;;;;;8.82;3.88;;;;;;;18.98;37.79;101342.59;5012898;27;97244;-75
2021/05/08 09:45:15;;;;;;;6.13;3.60;;;;;;;19.00;37.73;101338.16;4982009;28;96722;-75
2021/05/08 09:47:44;;;;;;;5.82;3.33;;;;;;;19.02;37.90;101329.34;4975508;28;100717;-75
2021/05/08 09:50:10;;;;;;;5.95;3.42;;;;;;;19.05;37.73;101330.19;4997542;28;97302;-74
2021/05/08 09:52:54;;;;;;;8.30;3.78;;;;;;;19.07;37.45;101326.59;4987234;28;96811;-75
2021/05/08 09:55:23;;;;;;;6.65;3.85;;;;;;;19.08;37.34;101323.06;4989284;28;96832;-75
2021/05/08 09:58:02;;;;;;;6.55;4.00;;;;;;;19.10;37.46;101320.41;4988731;28;98387;-74
2021/05/08 10:00:29;;;;;;;4.45;3.38;;;;;;;19.12;37.35;101329.19;4993334;28;97777;-74
2021/05/08 10:03:09;;;;;;;5.93;4.38;;;;;;;19.11;36.67;101330.06;4957788;28;97888;-75
2021/05/08 10:05:35;;;;;;;6.53;4.43;;;;;;;19.02;36.31;101317.91;4984630;28;96902;-75
2021/05/08 10:08:00;;;;;;;6.60;4.40;;;;;;;18.97;36.03;101317.09;4989084;28;97625;-75
2021/05/08 10:10:26;;;;;;;8.60;3.95;;;;;;;18.90;36.01;101308.38;4984819;28;110629;-75
2021/05/08 10:12:52;;;;;;;6.93;3.92;;;;;;;18.85;35.86;101299.63;5007598;28;97413;-75
2021/05/08 10:15:17;;;;;;;8.57;4.47;;;;;;;18.81;36.07;101309.38;4985003;28;96745;-75
2021/05/08 10:17:51;;;;;;;8.98;4.25;;;;;;;18.78;35.92;101301.44;4997511;28;97306;-75
2021/05/08 10:20:19;;;;;;;9.93;4.45;;;;;;;18.73;36.04;101312.97;4954365;28;100437;-75
2021/05/08 10:22:49;;;;;;;6.72;4.18;;;;;;;18.70;35.65;101291.88;4971811;28;96794;-74
2021/05/08 10:25:18;;;;;;;14.20;4.32;;;;;;;18.65;35.31;101298.09;4992760;28;96691;-75
2021/05/08 10:27:43;;;;;;;9.27;3.83;;;;;;;18.62;35.44;101294.63;4988976;28;97989;-75
2021/05/08 10:30:24;;;;;;;10.52;4.57;;;;;;;18.59;35.27;101297.31;4988885;28;97780;-81
2021/05/08 10:32:50;;;;;;;9.32;3.65;;;;;;;18.56;35.28;101306.16;4956979;28;96650;-80
2021/05/08 10:35:49;;;;;;;7.05;3.92;;;;;;;18.56;35.34;101292.09;4975215;28;96710;-81
